Coos Bay, OR

8:03 PM PST on December 19, 2014 (GMT -0800)
Red Dyke Road | Change Station
CLOSE
Current Station
Personal Weather Station
Location: Coos Bay, OR
Elevation: 39 ft
Nearby Weather Stations

Elev 39 ft 43.33 °N, 124.23 °W | Updated 11 minutes ago

Rain
Rain
48.6 °F
Feels Like 49 °F
N
2.2
Wind Variable Wind from South

Today
High -- | Low -- °F
--% Chance of Precip.
Yesterday
High -- | Low -- °F
Precip. -- in
7:45 AM 4:43 PM
Waning Crescent, 5% visible
Pressure 30.00 in
Visibility 10.0 miles
Clouds Few 2700 ft
Mostly Cloudy 3600 ft
Overcast 4400 ft
Windchill 49 °F
Dew Point 48 °F
Humidity 99%
Rainfall 0.72 in
Snow Depth Not available.
UV 0 out of 12
Pollen .50 out of 12
Air Quality Not available.
Flu Activity Not available.
METAR KOTH 200355Z 20005KT 10SM FEW027 BKN036 OVC044 11/09 A3000 RMK AO1 P0012

More Conditions Fewer Conditions

Pressure 30.00 in
Visibility 10.0 miles
Clouds Few 2700 ft
Mostly Cloudy 3600 ft
Overcast 4400 ft
Windchill 49 °F
Dew Point 48 °F
Humidity 99%
Rainfall 0.72 in
Snow Depth Not available.
UV 0 out of 12
Pollen .50 out of 12
Air Quality Not available.
Flu Activity Not available.
METAR KOTH 200355Z 20005KT 10SM FEW027 BKN036 OVC044 11/09 A3000 RMK AO1 P0012

More Conditions Fewer Conditions

10-Day Weather Forecast

Almanac

Astronomy

Dec. 19, 2014 Rise Set
Actual Time
Civil Twilight
Nautical Twilight
Astronomical Twilight
Moon
Length of Visible Light
Length of Day
Tomorrow will be .
, % of the Moon is Illuminated

Today's Extremes

State Highs State Lows

Community

WunderPhotos

Upload Photos

1,779,127 photos uploaded!

WunderBlogs® & News

Nearby

Air Quality

  Air Quality AQ Index Pollutant
Not available.

Snow Depth

Station Depth Elevation

Earthquake Activity

City Distance Mag. Time & Date
Minimum magnitude displayed is 2.5.

Coastal Water Temperatures

Place Temperature

Nearby Weather Stations